createdAt,value
2018-06-27T00:00:38.021Z,13.73
2018-06-27T00:03:06.235Z,14.53
2018-06-27T00:05:34.400Z,14.33
2018-06-27T00:08:02.639Z,13.60
2018-06-27T00:10:30.809Z,13.27
2018-06-27T00:12:59.189Z,13.07
2018-06-27T00:15:27.431Z,13.63
2018-06-27T00:17:55.626Z,13.83
2018-06-27T00:20:23.809Z,13.90
2018-06-27T00:22:52.014Z,14.47
2018-06-27T00:25:20.213Z,13.50
2018-06-27T00:27:48.424Z,15.00
2018-06-27T00:30:16.628Z,14.13
2018-06-27T00:32:44.814Z,16.17
2018-06-27T00:35:13.021Z,15.13
2018-06-27T00:37:41.249Z,13.80
2018-06-27T00:40:09.460Z,14.00
2018-06-27T00:42:37.821Z,14.43
2018-06-27T00:45:06.311Z,13.97
2018-06-27T00:47:34.486Z,14.37
2018-06-27T00:50:02.695Z,12.83
2018-06-27T00:52:30.918Z,12.60
2018-06-27T00:54:59.125Z,12.07
2018-06-27T00:57:27.292Z,13.07
2018-06-27T00:59:55.498Z,12.23
2018-06-27T01:02:23.693Z,13.13
2018-06-27T01:04:51.941Z,13.60
2018-06-27T01:07:20.149Z,14.50
2018-06-27T01:09:48.356Z,14.50
2018-06-27T01:12:16.544Z,14.03
2018-06-27T01:14:45.593Z,14.20
2018-06-27T01:17:13.805Z,13.30
2018-06-27T01:19:41.989Z,13.53
2018-06-27T01:22:10.218Z,14.83
2018-06-27T01:24:38.406Z,12.30
2018-06-27T01:27:06.602Z,13.07
2018-06-27T01:29:34.817Z,14.47
2018-06-27T01:32:03.007Z,14.83
2018-06-27T01:34:31.185Z,14.33
2018-06-27T01:36:59.404Z,15.03
2018-06-27T01:39:27.609Z,14.70
2018-06-27T01:41:55.780Z,14.73
2018-06-27T01:44:24.006Z,14.13
2018-06-27T01:46:52.182Z,13.80
2018-06-27T01:49:20.368Z,11.63
2018-06-27T01:51:48.558Z,11.13
2018-06-27T01:54:16.725Z,13.47
2018-06-27T01:56:44.939Z,13.73
2018-06-27T01:59:13.184Z,13.97
2018-06-27T02:01:41.373Z,12.47
2018-06-27T02:04:09.308Z,12.13
2018-06-27T02:06:37.531Z,11.73
2018-06-27T02:09:06.471Z,12.30
2018-06-27T02:11:34.678Z,13.57
2018-06-27T02:14:03.141Z,14.67
2018-06-27T02:16:31.337Z,14.70
2018-06-27T02:18:59.534Z,15.33
2018-06-27T02:21:27.739Z,15.07
2018-06-27T02:23:55.930Z,14.17
2018-06-27T02:26:24.112Z,13.47
2018-06-27T02:28:52.329Z,13.03
2018-06-27T02:31:20.500Z,12.80
2018-06-27T02:33:48.698Z,12.77
2018-06-27T02:36:16.918Z,12.33
2018-06-27T02:38:45.125Z,13.77
2018-06-27T02:41:13.300Z,12.57
2018-06-27T02:43:41.486Z,12.27
2018-06-27T02:46:09.666Z,11.57
2018-06-27T02:48:37.843Z,11.30
2018-06-27T02:51:06.049Z,10.87
2018-06-27T02:53:37.313Z,11.07
2018-06-27T02:56:06.645Z,11.37
2018-06-27T02:58:34.844Z,12.43
2018-06-27T03:01:03.052Z,12.57
2018-06-27T03:03:31.257Z,12.93
2018-06-27T03:05:59.533Z,14.27
2018-06-27T03:08:27.849Z,10.97
2018-06-27T03:10:56.166Z,10.27
2018-06-27T03:13:24.389Z,11.43
2018-06-27T03:15:52.614Z,11.90
2018-06-27T03:18:20.814Z,12.73
2018-06-27T03:20:49.032Z,13.73
2018-06-27T03:23:17.215Z,12.63
2018-06-27T03:25:45.416Z,12.50
2018-06-27T03:28:13.607Z,12.50
2018-06-27T03:30:41.800Z,12.97
2018-06-27T03:33:10.021Z,17.17
2018-06-27T03:35:38.224Z,17.40
2018-06-27T03:38:06.154Z,17.33
2018-06-27T03:40:34.363Z,18.30
2018-06-27T03:43:02.542Z,17.60
2018-06-27T03:45:30.741Z,18.70
2018-06-27T03:47:58.965Z,18.23
2018-06-27T03:50:27.166Z,17.67
2018-06-27T03:52:55.342Z,18.23
2018-06-27T03:55:23.574Z,18.53
2018-06-27T03:57:51.764Z,18.50
2018-06-27T04:00:19.964Z,17.00
2018-06-27T04:02:48.166Z,17.70
2018-06-27T04:05:16.363Z,15.53
2018-06-27T04:07:44.587Z,17.07
2018-06-27T04:10:12.966Z,16.80
2018-06-27T04:12:41.215Z,17.53
2018-06-27T04:15:09.465Z,17.27
2018-06-27T04:17:37.750Z,19.00
2018-06-27T04:20:06.048Z,18.70
2018-06-27T04:22:35.055Z,19.90
2018-06-27T04:25:03.313Z,19.80
2018-06-27T04:27:32.892Z,19.93
2018-06-27T04:30:02.328Z,19.87
2018-06-27T04:32:30.564Z,19.80
2018-06-27T04:34:59.848Z,19.27
2018-06-27T04:37:28.043Z,17.97
2018-06-27T04:39:56.617Z,15.97
2018-06-27T04:42:24.791Z,14.77
2018-06-27T04:44:52.961Z,12.20
2018-06-27T04:47:21.175Z,13.00
2018-06-27T04:49:49.363Z,12.07
2018-06-27T04:52:17.550Z,11.40
2018-06-27T04:54:45.783Z,10.63
2018-06-27T04:57:13.958Z,12.40
2018-06-27T04:59:42.167Z,12.90
2018-06-27T05:02:10.395Z,13.43
2018-06-27T05:04:38.597Z,14.47
2018-06-27T05:07:06.882Z,14.20
2018-06-27T05:09:35.106Z,15.53
2018-06-27T05:12:03.314Z,16.87
2018-06-27T05:14:31.510Z,15.70
2018-06-27T05:16:59.720Z,16.27
2018-06-27T05:19:27.929Z,17.03
2018-06-27T05:21:56.112Z,16.60
2018-06-27T05:24:24.304Z,16.53
2018-06-27T05:26:52.487Z,17.37
2018-06-27T05:29:20.693Z,16.10
2018-06-27T05:31:48.645Z,15.63
2018-06-27T05:34:16.857Z,16.63
2018-06-27T05:36:45.099Z,16.60
2018-06-27T05:39:13.291Z,15.83
2018-06-27T05:41:41.473Z,15.70
2018-06-27T05:44:09.666Z,17.00
2018-06-27T05:46:40.386Z,17.00
2018-06-27T05:49:08.628Z,17.30
2018-06-27T05:51:36.804Z,17.47
2018-06-27T05:54:05.005Z,19.57
2018-06-27T05:56:33.163Z,18.37
2018-06-27T05:59:01.417Z,20.50
2018-06-27T06:01:29.632Z,19.07
2018-06-27T06:03:57.817Z,20.80
2018-06-27T06:06:26.013Z,21.47
2018-06-27T06:08:54.261Z,21.73
2018-06-27T06:11:22.544Z,22.00
2018-06-27T06:13:50.576Z,22.67
2018-06-27T06:16:18.778Z,22.77
2018-06-27T06:18:47.076Z,22.40
2018-06-27T06:21:15.238Z,22.40
2018-06-27T06:23:43.456Z,22.73
2018-06-27T06:26:11.633Z,22.30
2018-06-27T06:28:39.789Z,22.67
2018-06-27T06:31:07.997Z,22.93
2018-06-27T06:33:36.202Z,23.57
2018-06-27T06:36:04.340Z,23.03
2018-06-27T06:38:32.549Z,22.47
2018-06-27T06:41:00.687Z,22.40
2018-06-27T06:43:28.826Z,21.67
2018-06-27T06:45:57.108Z,22.67
2018-06-27T06:48:25.224Z,22.53
2018-06-27T06:50:53.351Z,21.77
2018-06-27T06:53:21.518Z,23.10
2018-06-27T06:55:49.649Z,22.23
2018-06-27T06:58:17.773Z,22.37
2018-06-27T07:00:45.908Z,22.40
2018-06-27T07:03:14.049Z,22.67
2018-06-27T07:05:42.516Z,22.27
2018-06-27T07:08:10.725Z,21.97
2018-06-27T07:10:38.900Z,21.53
2018-06-27T07:13:07.146Z,21.57
2018-06-27T07:15:35.378Z,20.90
2018-06-27T07:18:03.572Z,21.53
2018-06-27T07:20:31.766Z,20.87
2018-06-27T07:22:59.933Z,20.43
2018-06-27T07:25:28.456Z,20.10
2018-06-27T07:27:56.620Z,19.73
2018-06-27T07:30:24.793Z,18.97
2018-06-27T07:32:53.281Z,18.63
2018-06-27T07:35:21.483Z,19.00
2018-06-27T07:37:49.697Z,19.27
2018-06-27T07:40:18.081Z,18.73
2018-06-27T07:42:46.246Z,17.70
2018-06-27T07:45:14.421Z,17.53
2018-06-27T07:47:42.614Z,17.07
2018-06-27T07:50:10.790Z,18.03
2018-06-27T07:52:38.989Z,16.27
2018-06-27T07:55:07.169Z,15.17
2018-06-27T07:57:35.339Z,13.73
2018-06-27T08:00:03.526Z,15.03
2018-06-27T08:02:31.699Z,16.20
2018-06-27T08:04:59.862Z,15.83
2018-06-27T08:07:28.031Z,15.53
2018-06-27T08:09:56.224Z,15.23
2018-06-27T08:12:24.435Z,13.63
2018-06-27T08:14:52.594Z,13.73
2018-06-27T08:17:20.749Z,12.13
2018-06-27T08:19:48.951Z,13.27
2018-06-27T08:22:17.144Z,12.40
2018-06-27T08:24:45.296Z,13.00
2018-06-27T08:27:13.462Z,12.13
2018-06-27T08:29:41.638Z,11.00
2018-06-27T08:32:09.801Z,11.47
2018-06-27T08:34:37.973Z,11.17
2018-06-27T08:37:06.182Z,10.60
2018-06-27T08:39:34.337Z,10.80
2018-06-27T08:42:02.488Z,10.90
2018-06-27T08:44:30.681Z,10.30
2018-06-27T08:46:58.829Z,9.80
2018-06-27T08:49:27.016Z,10.00
2018-06-27T08:51:55.222Z,8.50
2018-06-27T08:54:23.410Z,9.00
2018-06-27T08:56:51.748Z,8.98
2018-06-27T08:59:19.940Z,9.38
2018-06-27T09:01:48.092Z,9.03
2018-06-27T09:04:16.276Z,8.98
2018-06-27T09:06:44.454Z,8.43
2018-06-27T09:09:13.095Z,8.20
2018-06-27T09:11:41.898Z,8.23
2018-06-27T09:14:10.062Z,9.65
2018-06-27T09:16:38.242Z,8.50
2018-06-27T09:19:06.641Z,8.45
2018-06-27T09:21:34.840Z,8.93
2018-06-27T09:24:03.013Z,7.70
2018-06-27T09:26:31.417Z,7.75
2018-06-27T09:28:59.583Z,7.05
2018-06-27T09:31:27.734Z,6.62
2018-06-27T09:33:55.932Z,6.85
2018-06-27T09:36:24.094Z,7.58
2018-06-27T09:38:52.385Z,8.75
2018-06-27T09:41:20.597Z,7.03
2018-06-27T09:43:48.803Z,5.50
2018-06-27T09:46:16.986Z,6.70
2018-06-27T09:48:45.133Z,6.05
2018-06-27T09:51:13.305Z,4.55
2018-06-27T09:53:41.478Z,4.05
2018-06-27T09:56:09.654Z,4.55
2018-06-27T09:58:37.853Z,5.47
2018-06-27T10:01:06.032Z,3.50
2018-06-27T10:03:34.186Z,2.90
2018-06-27T10:06:02.417Z,3.95
2018-06-27T10:08:30.600Z,4.00
2018-06-27T10:10:58.760Z,3.50
2018-06-27T10:13:26.957Z,3.47
2018-06-27T10:15:55.143Z,2.85
2018-06-27T10:18:23.556Z,3.70
2018-06-27T10:20:51.844Z,3.67
2018-06-27T10:23:20.000Z,3.67
2018-06-27T10:25:48.175Z,3.55
2018-06-27T10:28:16.371Z,3.58
2018-06-27T10:30:44.526Z,4.00
2018-06-27T10:33:13.155Z,3.85
2018-06-27T10:35:41.358Z,3.37
2018-06-27T10:38:09.541Z,3.00
2018-06-27T10:40:37.689Z,4.15
2018-06-27T10:43:05.875Z,2.98
2018-06-27T10:45:34.108Z,3.10
2018-06-27T10:48:02.293Z,2.85
2018-06-27T10:50:30.462Z,2.75
2018-06-27T10:52:58.623Z,2.98
2018-06-27T10:55:26.776Z,3.15
2018-06-27T10:57:54.967Z,3.35
2018-06-27T11:00:23.131Z,2.98
2018-06-27T11:02:51.300Z,3.10
2018-06-27T11:05:19.566Z,2.95
2018-06-27T11:07:47.629Z,2.70
2018-06-27T11:10:15.822Z,2.50
2018-06-27T11:12:44.003Z,2.47
2018-06-27T11:15:12.160Z,2.62
2018-06-27T11:17:40.350Z,2.62
2018-06-27T11:20:08.523Z,2.47
2018-06-27T11:22:36.685Z,2.08
2018-06-27T11:25:04.888Z,2.30
2018-06-27T11:27:33.421Z,2.47
2018-06-27T11:30:01.651Z,2.60
2018-06-27T11:32:29.849Z,2.70
2018-06-27T11:34:58.085Z,2.40
2018-06-27T11:37:26.357Z,2.70
2018-06-27T11:39:54.548Z,2.40
2018-06-27T11:42:22.953Z,2.87
2018-06-27T11:44:51.159Z,2.67
2018-06-27T11:47:19.671Z,2.75
2018-06-27T11:49:47.856Z,2.77
2018-06-27T11:52:16.031Z,2.98
2018-06-27T11:54:44.580Z,2.80
2018-06-27T11:57:12.757Z,2.72
2018-06-27T11:59:40.913Z,2.90
2018-06-27T12:02:09.109Z,2.65
2018-06-27T12:04:37.340Z,2.80
2018-06-27T12:07:05.539Z,2.75
2018-06-27T12:09:34.134Z,3.10
2018-06-27T12:12:02.329Z,2.80
2018-06-27T12:14:30.508Z,2.83
2018-06-27T12:16:58.738Z,2.47
2018-06-27T12:19:26.873Z,2.67
2018-06-27T12:21:55.029Z,2.50
2018-06-27T12:24:23.178Z,2.20
2018-06-27T12:26:51.374Z,2.50
2018-06-27T12:29:19.524Z,2.40
2018-06-27T12:31:47.677Z,2.17
2018-06-27T12:34:15.869Z,2.22
2018-06-27T12:36:44.054Z,2.37
2018-06-27T12:39:12.209Z,2.58
2018-06-27T12:41:40.394Z,2.50
2018-06-27T12:44:08.589Z,2.40
2018-06-27T12:46:37.231Z,2.75
2018-06-27T12:49:06.750Z,2.87
2018-06-27T12:51:34.901Z,2.70
2018-06-27T12:54:03.074Z,2.73
2018-06-27T12:56:31.266Z,2.50
2018-06-27T12:58:59.492Z,2.70
2018-06-27T13:01:27.663Z,2.42
2018-06-27T13:03:55.834Z,2.60
2018-06-27T13:06:24.003Z,2.80
2018-06-27T13:08:52.218Z,2.10
2018-06-27T13:11:20.420Z,2.00
2018-06-27T13:13:48.802Z,2.00
2018-06-27T13:16:16.960Z,1.90
2018-06-27T13:18:45.123Z,2.00
2018-06-27T13:21:15.479Z,1.70
2018-06-27T13:23:43.641Z,1.95
2018-06-27T13:26:11.805Z,1.90
2018-06-27T13:28:40.019Z,1.53
2018-06-27T13:31:08.165Z,1.60
2018-06-27T13:33:36.346Z,1.95
2018-06-27T13:36:04.825Z,2.50
2018-06-27T13:38:33.025Z,2.03
2018-06-27T13:41:01.166Z,2.40
2018-06-27T13:43:29.071Z,2.17
2018-06-27T13:45:57.999Z,2.40
2018-06-27T13:48:26.260Z,2.43
2018-06-27T13:50:54.400Z,2.50
2018-06-27T13:53:23.019Z,2.17
2018-06-27T13:55:51.276Z,2.30
2018-06-27T13:58:19.414Z,2.10
2018-06-27T14:00:47.540Z,2.50
2018-06-27T14:03:15.678Z,2.90
2018-06-27T14:05:43.836Z,2.20
2018-06-27T14:08:11.968Z,3.00
2018-06-27T14:10:40.109Z,2.43
2018-06-27T14:13:08.246Z,2.17
2018-06-27T14:15:36.427Z,2.80
2018-06-27T14:18:04.705Z,3.40
2018-06-27T14:20:33.109Z,2.20
2018-06-27T14:23:01.262Z,2.50
2018-06-27T14:25:29.446Z,2.40
2018-06-27T14:27:58.074Z,2.53
2018-06-27T14:30:26.271Z,2.37
2018-06-27T14:32:54.486Z,2.30
2018-06-27T14:35:22.605Z,2.30
2018-06-27T14:37:50.830Z,2.77
2018-06-27T14:40:19.034Z,1.98
2018-06-27T14:42:47.241Z,2.00
2018-06-27T14:45:15.456Z,1.87
2018-06-27T14:47:43.650Z,2.00
2018-06-27T14:50:11.822Z,1.80
2018-06-27T14:52:40.001Z,1.90
2018-06-27T14:55:09.009Z,2.00
2018-06-27T14:57:37.607Z,1.87
2018-06-27T15:00:05.741Z,1.67
2018-06-27T15:02:33.946Z,1.90
2018-06-27T15:05:02.156Z,1.70
2018-06-27T15:07:30.396Z,1.80
2018-06-27T15:09:58.572Z,1.98
2018-06-27T15:12:26.846Z,1.93
2018-06-27T15:14:55.022Z,1.80
2018-06-27T15:17:23.428Z,1.62
2018-06-27T15:19:51.634Z,1.50
2018-06-27T15:22:19.834Z,1.43
2018-06-27T15:24:47.977Z,3.07
2018-06-27T15:27:16.205Z,3.70
2018-06-27T15:29:44.354Z,3.43
2018-06-27T15:32:12.492Z,1.83
2018-06-27T15:34:40.702Z,2.10
2018-06-27T15:37:08.896Z,2.70
2018-06-27T15:39:37.036Z,2.30
2018-06-27T15:42:05.264Z,2.27
2018-06-27T15:44:33.404Z,2.30
2018-06-27T15:47:03.091Z,1.50
2018-06-27T15:49:31.280Z,1.30
2018-06-27T15:51:59.455Z,1.40
2018-06-27T15:54:27.892Z,1.47
2018-06-27T15:56:56.154Z,1.20
2018-06-27T15:59:24.392Z,1.30
2018-06-27T16:01:52.611Z,1.50
2018-06-27T16:04:20.833Z,1.50
2018-06-27T16:06:49.036Z,1.20
2018-06-27T16:09:17.258Z,1.23
2018-06-27T16:11:45.678Z,1.50
2018-06-27T16:14:13.632Z,1.50
2018-06-27T16:16:41.852Z,1.20
2018-06-27T16:19:10.073Z,1.17
2018-06-27T16:21:38.245Z,1.20
2018-06-27T16:24:06.469Z,2.27
2018-06-27T16:26:34.613Z,2.03
2018-06-27T16:29:04.661Z,4.03
2018-06-27T16:31:32.813Z,2.10
2018-06-27T16:34:00.965Z,2.03
2018-06-27T16:36:29.115Z,1.70
2018-06-27T16:38:57.277Z,2.23
2018-06-27T16:41:25.442Z,1.97
2018-06-27T16:43:53.677Z,1.40
2018-06-27T16:46:21.818Z,1.50
2018-06-27T16:48:49.958Z,1.77
2018-06-27T16:51:18.161Z,1.70
2018-06-27T16:53:46.328Z,1.50
2018-06-27T16:56:14.497Z,1.13
2018-06-27T16:58:42.652Z,1.67
2018-06-27T17:01:11.011Z,1.53
2018-06-27T17:03:39.001Z,1.90
2018-06-27T17:06:07.713Z,1.30
2018-06-27T17:08:35.845Z,1.40
2018-06-27T17:11:04.013Z,1.40
2018-06-27T17:13:32.207Z,1.60
2018-06-27T17:16:00.381Z,1.53
2018-06-27T17:18:28.561Z,1.60
2018-06-27T17:20:56.761Z,1.40
2018-06-27T17:23:24.966Z,1.27
2018-06-27T17:25:53.110Z,1.40
2018-06-27T17:28:21.360Z,1.20
2018-06-27T17:30:49.502Z,1.50
2018-06-27T17:33:17.956Z,1.13
2018-06-27T17:35:46.124Z,1.40
2018-06-27T17:38:14.302Z,9.17
2018-06-27T17:40:42.444Z,1.13
2018-06-27T17:43:10.591Z,1.07
2018-06-27T17:45:38.748Z,1.17
2018-06-27T17:48:06.890Z,1.30
2018-06-27T17:50:35.036Z,1.30
2018-06-27T17:53:03.172Z,1.40
2018-06-27T17:55:31.299Z,1.33
2018-06-27T17:57:59.452Z,2.43
2018-06-27T18:00:27.592Z,1.60
2018-06-27T18:02:55.730Z,1.10
2018-06-27T18:05:23.886Z,1.77
2018-06-27T18:07:56.454Z,1.40
2018-06-27T18:10:29.547Z,1.87
2018-06-27T18:12:58.473Z,1.27
2018-06-27T18:15:26.674Z,1.47
2018-06-27T18:17:54.848Z,1.33
2018-06-27T18:20:24.818Z,1.80
2018-06-27T18:22:52.958Z,1.60
2018-06-27T18:25:22.861Z,1.50
2018-06-27T18:27:51.036Z,1.43
2018-06-27T18:30:19.231Z,1.87
2018-06-27T18:32:47.420Z,2.20
2018-06-27T18:35:15.561Z,1.70
2018-06-27T18:37:43.729Z,2.30
2018-06-27T18:40:11.878Z,2.37
2018-06-27T18:42:40.089Z,2.10
2018-06-27T18:45:08.826Z,2.07
2018-06-27T18:47:36.992Z,1.60
2018-06-27T18:50:05.234Z,2.20
2018-06-27T18:52:33.380Z,1.67
2018-06-27T18:55:01.544Z,1.70
2018-06-27T18:57:29.701Z,1.77
2018-06-27T18:59:57.849Z,1.87
2018-06-27T19:02:26.119Z,1.80
2018-06-27T19:04:54.307Z,1.47
2018-06-27T19:07:22.465Z,1.60
2018-06-27T19:09:50.605Z,2.07
2018-06-27T19:12:18.742Z,2.77
2018-06-27T19:14:46.890Z,1.90
2018-06-27T19:17:15.092Z,2.10
2018-06-27T19:19:43.564Z,2.23
2018-06-27T19:22:11.755Z,1.97
2018-06-27T19:24:39.949Z,2.10
2018-06-27T19:27:08.145Z,2.03
2018-06-27T19:29:36.458Z,1.93
2018-06-27T19:32:04.689Z,1.83
2018-06-27T19:34:32.922Z,2.43
2018-06-27T19:37:01.115Z,1.83
2018-06-27T19:39:37.455Z,1.77
2018-06-27T19:41:57.500Z,2.00
2018-06-27T19:44:25.657Z,2.10
2018-06-27T19:46:53.839Z,2.27
2018-06-27T19:49:22.110Z,2.10
2018-06-27T19:51:50.251Z,2.13
2018-06-27T19:54:18.418Z,2.53
2018-06-27T19:56:46.590Z,2.27
2018-06-27T19:59:15.016Z,2.10
2018-06-27T20:01:43.206Z,2.33
2018-06-27T20:04:11.422Z,2.13
2018-06-27T20:06:39.520Z,2.37
2018-06-27T20:09:08.437Z,2.23
2018-06-27T20:11:36.613Z,2.23
2018-06-27T20:14:04.856Z,2.00
2018-06-27T20:16:33.306Z,2.00
2018-06-27T20:19:01.425Z,2.10
2018-06-27T20:21:29.629Z,2.40
2018-06-27T20:23:57.767Z,2.40
2018-06-27T20:26:25.670Z,2.20
2018-06-27T20:28:53.849Z,2.43
2018-06-27T20:31:22.021Z,2.30
2018-06-27T20:33:50.191Z,2.23
2018-06-27T20:36:18.371Z,2.50
2018-06-27T20:38:46.529Z,2.20
2018-06-27T20:41:14.689Z,2.50
2018-06-27T20:43:42.861Z,2.77
2018-06-27T20:46:11.153Z,2.93
2018-06-27T20:48:39.382Z,2.90
2018-06-27T20:51:07.534Z,2.73
2018-06-27T20:53:36.044Z,2.63
2018-06-27T20:56:04.485Z,2.60
2018-06-27T20:58:32.669Z,3.10
2018-06-27T21:01:00.986Z,2.80
2018-06-27T21:03:29.146Z,2.43
2018-06-27T21:06:03.816Z,2.60
2018-06-27T21:08:32.055Z,2.37
2018-06-27T21:11:00.222Z,2.67
2018-06-27T21:13:28.423Z,2.73
2018-06-27T21:15:56.568Z,3.00
2018-06-27T21:18:24.760Z,2.87
2018-06-27T21:20:52.969Z,2.70
2018-06-27T21:23:21.123Z,2.93
2018-06-27T21:25:49.084Z,2.50
2018-06-27T21:28:17.243Z,2.70
2018-06-27T21:30:45.406Z,2.40
2018-06-27T21:33:13.589Z,2.30
2018-06-27T21:35:41.780Z,2.50
2018-06-27T21:38:09.922Z,2.47
2018-06-27T21:40:38.089Z,2.63
2018-06-27T21:43:06.289Z,2.80
2018-06-27T21:45:34.453Z,2.80
2018-06-27T21:48:02.624Z,2.40
2018-06-27T21:50:30.909Z,2.50
2018-06-27T21:52:59.057Z,2.50
2018-06-27T21:55:27.210Z,2.47
2018-06-27T21:57:55.401Z,2.50
2018-06-27T22:00:25.210Z,2.70
2018-06-27T22:02:53.653Z,2.63
2018-06-27T22:05:21.825Z,2.87
2018-06-27T22:07:49.979Z,2.30
2018-06-27T22:10:18.133Z,2.37
2018-06-27T22:12:46.313Z,2.63
2018-06-27T22:15:14.466Z,2.70
2018-06-27T22:17:42.710Z,2.73
2018-06-27T22:20:10.901Z,2.80
2018-06-27T22:22:39.074Z,2.70
2018-06-27T22:25:07.277Z,2.67
2018-06-27T22:27:35.456Z,2.57
2018-06-27T22:30:03.661Z,2.50
2018-06-27T22:32:31.817Z,2.70
2018-06-27T22:35:00.041Z,2.60
2018-06-27T22:37:28.225Z,2.20
2018-06-27T22:39:56.374Z,2.33
2018-06-27T22:42:24.533Z,2.33
2018-06-27T22:44:52.904Z,2.67
2018-06-27T22:47:21.089Z,2.70
2018-06-27T22:49:49.296Z,2.53
2018-06-27T22:52:17.660Z,2.53
2018-06-27T22:54:45.834Z,2.57
2018-06-27T22:57:14.022Z,2.60
2018-06-27T22:59:42.170Z,2.67
2018-06-27T23:02:10.326Z,2.50
2018-06-27T23:04:38.540Z,2.70
2018-06-27T23:07:06.703Z,2.87
2018-06-27T23:09:34.862Z,3.17
2018-06-27T23:12:03.205Z,3.13
2018-06-27T23:14:31.379Z,2.80
2018-06-27T23:16:59.525Z,2.63
2018-06-27T23:19:27.876Z,2.53
2018-06-27T23:21:56.036Z,2.50
2018-06-27T23:24:24.182Z,2.70
2018-06-27T23:26:52.366Z,2.90
2018-06-27T23:29:20.566Z,3.20
2018-06-27T23:31:48.810Z,2.90
2018-06-27T23:34:17.002Z,2.87
2018-06-27T23:36:45.176Z,2.83
2018-06-27T23:39:13.877Z,2.73
2018-06-27T23:41:42.882Z,3.13
2018-06-27T23:44:11.036Z,2.70
2018-06-27T23:46:39.262Z,3.00
2018-06-27T23:49:07.746Z,3.20
2018-06-27T23:51:35.950Z,2.93
2018-06-27T23:54:04.110Z,3.03
2018-06-27T23:56:32.278Z,2.90
2018-06-27T23:59:00.433Z,2.90
